Terminal Aerodrome Forecast
Issued by NWS

Home | Current Version | Previous Version | Text Only | Print | Product List | Glossary On
Versions: 1 2 3 4 5 6 7 8 9 10 11 12 13 14 15 16
000
FTUS42 KFFC 301734
TAFRYY
TAF
KRYY 301734Z 3018/3118 19010G18KT P6SM FEW040 BKN100
     FM302200 20012G18KT P6SM VCSH BKN050
     FM310300 18008KT 5SM -SHRA BKN030
      TEMPO 3103/3107 VRB20G30KT 3SM TSRA BKN020CB
     FM310700 23010KT P6SM VCSH OVC015
     FM311400 26012KT P6SM BKN030=

USA.gov is the U.S. government's official web portal to all federal, state and local government web resources and services.